Time;durP1;ratioP1;P1;durP2;ratioP2;P2;SDS_P1;SDS_P2;PMS_P1;PMS_P2;Temp;Humidity;BMP_temperature;BMP_pressure;BME280_temperature;BME280_humidity;BME280_pressure;Samples;Min_cycle;Max_cycle;Signal;HPM_P1;HPM_P2
2023/02/17 00:00:06;;;;;;;;;;;;;;;12.23;100.00;99771.16;4982699;28;19929;-51
2023/02/17 00:02:32;;;;;;;;;;;;;;;12.39;100.00;99772.44;4981791;28;19936;-51
2023/02/17 00:04:57;;;;;;;;;;;;;;;12.58;100.00;99766.75;4981920;28;19917;-53
2023/02/17 00:07:22;;;;;;;;;;;;;;;12.22;100.00;99769.44;4981331;28;20299;-52
2023/02/17 00:09:47;;;;;;;;;;;;;;;12.53;100.00;99791.00;4979929;28;20849;-53
2023/02/17 00:12:12;;;;;;;;;;;;;;;11.82;100.00;99775.63;4981064;28;20271;-50
2023/02/17 00:14:38;;;;;;;;;;;;;;;12.29;100.00;99799.38;4979971;28;20542;-50
2023/02/17 00:17:04;;;;;;;;;;;;;;;12.66;100.00;99814.78;4980303;28;19932;-49
2023/02/17 00:19:29;;;;;;;;;;;;;;;12.76;100.00;99781.75;4983292;28;21412;-48
2023/02/17 00:21:56;;;;;;;;;;;;;;;12.76;100.00;99786.91;4981090;28;20017;-52
2023/02/17 00:24:21;;;;;;;;;;;;;;;12.86;100.00;99779.75;4980726;28;19921;-51
2023/02/17 00:26:46;;;;;;;;;;;;;;;12.11;100.00;99768.00;4980757;28;20071;-49
2023/02/17 00:29:12;;;;;;;;;;;;;;;12.67;100.00;99771.69;4981559;28;20013;-52
2023/02/17 00:31:37;;;;;;;;;;;;;;;12.61;100.00;99764.94;4981194;28;19921;-50
2023/02/17 00:34:02;;;;;;;;;;;;;;;12.90;100.00;99761.50;4982080;28;19929;-52
2023/02/17 00:36:28;;;;;;;;;;;;;;;12.88;100.00;99752.94;4981733;28;19925;-49
2023/02/17 00:38:54;;;;;;;;;;;;;;;13.41;100.00;99746.22;4980402;28;19937;-50
2023/02/17 00:41:19;;;;;;;;;;;;;;;13.37;100.00;99707.53;4980914;28;19925;-51
2023/02/17 00:43:44;;;;;;;;;;;;;;;13.52;100.00;99693.22;4982082;28;19928;-51
2023/02/17 00:46:09;;;;;;;;;;;;;;;13.59;100.00;99675.75;5000904;28;19928;-51
2023/02/17 00:48:35;;;;;;;;;;;;;;;13.06;100.00;99653.31;4980269;28;19917;-49
2023/02/17 00:51:00;;;;;;;;;;;;;;;12.34;100.00;99642.59;4979441;28;19976;-49
2023/02/17 00:53:25;;;;;;;;;;;;;;;13.04;100.00;99662.84;5011078;28;19968;-51
2023/02/17 00:55:50;;;;;;;;;;;;;;;12.73;100.00;99661.22;4980951;28;19925;-49
2023/02/17 00:58:16;;;;;;;;;;;;;;;13.64;100.00;99670.44;4979433;28;19922;-51
2023/02/17 01:00:41;;;;;;;;;;;;;;;13.57;100.00;99654.25;4981654;28;20020;-49
2023/02/17 01:03:06;;;;;;;;;;;;;;;13.14;100.00;99627.22;4982662;28;20498;-49
2023/02/17 01:05:31;;;;;;;;;;;;;;;13.47;100.00;99634.78;4978631;28;20290;-49
2023/02/17 01:07:57;;;;;;;;;;;;;;;13.19;100.00;99620.16;4980339;28;19932;-48
2023/02/17 01:10:22;;;;;;;;;;;;;;;13.32;100.00;99624.06;4979286;28;20185;-49
2023/02/17 01:12:47;;;;;;;;;;;;;;;12.91;100.00;99626.22;4979689;28;19928;-50
2023/02/17 01:15:12;;;;;;;;;;;;;;;12.69;100.00;99640.69;4978732;28;20510;-50
2023/02/17 01:17:38;;;;;;;;;;;;;;;12.90;100.00;99655.53;4980286;28;19917;-51
2023/02/17 01:20:03;;;;;;;;;;;;;;;12.26;100.00;99660.03;4980153;28;19932;-50
2023/02/17 01:22:28;;;;;;;;;;;;;;;12.87;100.00;99675.47;4979657;28;19922;-49
2023/02/17 01:24:54;;;;;;;;;;;;;;;12.32;100.00;99677.94;4982555;28;19918;-49
2023/02/17 01:27:19;;;;;;;;;;;;;;;12.63;100.00;99690.78;4985448;28;19914;-50
2023/02/17 01:29:44;;;;;;;;;;;;;;;12.85;100.00;99703.09;4986132;28;19928;-51
2023/02/17 01:32:10;;;;;;;;;;;;;;;12.49;100.00;99711.03;4986591;28;19992;-51
2023/02/17 01:34:35;;;;;;;;;;;;;;;12.84;100.00;99722.06;4986073;28;19972;-51
2023/02/17 01:37:01;;;;;;;;;;;;;;;12.41;100.00;99719.00;4985661;28;19957;-51
2023/02/17 01:39:26;;;;;;;;;;;;;;;12.31;100.00;99730.47;4983611;28;20043;-50
2023/02/17 01:41:51;;;;;;;;;;;;;;;12.80;100.00;99736.84;4986536;28;20025;-49
2023/02/17 01:44:18;;;;;;;;;;;;;;;13.08;100.00;99720.50;4986293;28;19934;-51
2023/02/17 01:46:44;;;;;;;;;;;;;;;12.53;100.00;99712.63;5022974;28;20016;-52
2023/02/17 01:49:12;;;;;;;;;;;;;;;12.80;100.00;99715.31;4985868;28;20403;-52
2023/02/17 01:51:38;;;;;;;;;;;;;;;12.45;100.00;99723.19;5023059;28;19921;-51
2023/02/17 01:54:08;;;;;;;;;;;;;;;12.48;100.00;99730.84;4985296;28;20000;-50
2023/02/17 01:56:33;;;;;;;;;;;;;;;12.47;100.00;99736.06;4983667;28;19933;-50
2023/02/17 01:59:03;;;;;;;;;;;;;;;12.97;100.00;99744.91;5029217;28;19987;-49
2023/02/17 02:01:28;;;;;;;;;;;;;;;12.56;100.00;99722.88;4999704;28;19945;-49
2023/02/17 02:03:53;;;;;;;;;;;;;;;12.25;100.00;99731.50;4986022;28;20292;-51
2023/02/17 02:06:19;;;;;;;;;;;;;;;12.47;100.00;99759.31;4984810;28;19976;-51
2023/02/17 02:08:48;;;;;;;;;;;;;;;12.82;100.00;99760.91;5019877;28;20330;-48
2023/02/17 02:11:13;;;;;;;;;;;;;;;12.44;100.00;99768.00;5028874;28;19930;-51
2023/02/17 02:13:38;;;;;;;;;;;;;;;12.33;100.00;99781.19;4985665;28;20464;-50
2023/02/17 02:16:12;;;;;;;;;;;;;;;12.83;100.00;99797.94;4984784;28;20283;-49
2023/02/17 02:18:48;;;;;;;;;;;;;;;12.04;100.00;99770.78;5019915;28;20024;-51
2023/02/17 02:21:16;;;;;;;;;;;;;;;12.74;100.00;99806.78;5027852;28;20397;-49
2023/02/17 02:24:08;;;;;;;;;;;;;;;12.84;100.00;99809.97;4985737;28;20394;-51
2023/02/17 02:26:53;;;;;;;;;;;;;;;12.11;100.00;99799.00;4985518;28;19921;-50
2023/02/17 02:29:38;;;;;;;;;;;;;;;12.76;94.62;99843.78;5022287;28;19933;-51
2023/02/17 02:32:22;;;;;;;;;;;;;;;12.60;100.00;99838.19;4985586;28;19929;-52
2023/02/17 02:34:50;;;;;;;;;;;;;;;12.69;98.76;99839.69;4985544;28;19972;-49
2023/02/17 02:37:15;;;;;;;;;;;;;;;12.36;97.64;99834.50;5016108;28;19929;-50
2023/02/17 02:39:41;;;;;;;;;;;;;;;12.05;99.73;99837.88;4982970;28;19918;-49
2023/02/17 02:42:08;;;;;;;;;;;;;;;11.81;95.57;99835.84;4982693;28;19922;-49
2023/02/17 02:44:33;;;;;;;;;;;;;;;13.34;91.36;99883.56;4980557;28;19932;-50
2023/02/17 02:47:03;;;;;;;;;;;;;;;13.22;97.13;99857.16;4981784;28;19922;-49
2023/02/17 02:49:28;;;;;;;;;;;;;;;12.65;100.00;99831.16;4980952;28;20298;-49
2023/02/17 02:51:56;;;;;;;;;;;;;;;13.01;100.00;99827.59;4982176;28;19922;-48
2023/02/17 02:54:34;;;;;;;;;;;;;;;12.70;100.00;99811.22;5019704;28;19927;-50
2023/02/17 02:57:17;;;;;;;;;;;;;;;12.12;98.71;99816.16;4982201;28;19929;-51
2023/02/17 02:59:52;;;;;;;;;;;;;;;12.69;95.11;99844.84;4982566;28;20418;-50
2023/02/17 03:02:17;;;;;;;;;;;;;;;13.01;98.67;99837.94;5021198;28;19936;-50
2023/02/17 03:04:54;;;;;;;;;;;;;;;12.71;96.82;99830.16;4981738;28;20008;-50
2023/02/17 03:07:30;;;;;;;;;;;;;;;13.02;98.22;99813.75;4981490;28;19993;-48
2023/02/17 03:09:56;;;;;;;;;;;;;;;12.61;99.35;99802.84;5022508;28;20385;-51
2023/02/17 03:12:23;;;;;;;;;;;;;;;12.43;94.80;99820.56;4981922;28;19924;-50
2023/02/17 03:14:49;;;;;;;;;;;;;;;12.79;94.87;99830.75;5018107;28;20029;-52
2023/02/17 03:17:14;;;;;;;;;;;;;;;12.51;95.36;99815.19;5020260;28;20005;-50
2023/02/17 03:19:39;;;;;;;;;;;;;;;12.65;92.73;99827.72;4981551;28;19964;-51
2023/02/17 03:22:08;;;;;;;;;;;;;;;12.29;94.78;99817.47;4981559;28;20441;-50
2023/02/17 03:24:33;;;;;;;;;;;;;;;12.17;92.25;99841.03;4979150;28;19926;-49
2023/02/17 03:26:58;;;;;;;;;;;;;;;13.07;90.21;99877.41;4981448;28;19922;-50
2023/02/17 03:29:23;;;;;;;;;;;;;;;12.19;93.05;99855.59;4981685;28;20441;-51
2023/02/17 03:31:49;;;;;;;;;;;;;;;12.02;90.79;99860.31;4980706;28;20672;-48
2023/02/17 03:34:14;;;;;;;;;;;;;;;12.79;87.07;99916.06;4981510;28;20045;-49
2023/02/17 03:36:39;;;;;;;;;;;;;;;12.24;88.55;99904.56;4980465;28;20338;-49
2023/02/17 03:39:04;;;;;;;;;;;;;;;12.68;83.21;99924.13;4980867;28;20980;-49
2023/02/17 03:41:30;;;;;;;;;;;;;;;13.06;84.31;99942.91;4981761;28;20333;-51
2023/02/17 03:43:55;;;;;;;;;;;;;;;12.61;85.80;99919.13;4981214;28;19964;-51
2023/02/17 03:46:20;;;;;;;;;;;;;;;13.24;85.09;99943.31;4980059;28;19922;-50
2023/02/17 03:48:45;;;;;;;;;;;;;;;12.95;94.12;99883.75;4980351;28;19922;-51
2023/02/17 03:51:20;;;;;;;;;;;;;;;12.96;95.53;99869.94;4980270;28;19926;-49
2023/02/17 03:53:45;;;;;;;;;;;;;;;13.23;95.68;99861.41;4980445;28;19929;-51
2023/02/17 03:56:11;;;;;;;;;;;;;;;13.12;98.07;99848.81;4980461;28;19921;-47
2023/02/17 03:58:36;;;;;;;;;;;;;;;12.92;99.72;99845.03;4980542;28;19949;-49
2023/02/17 04:01:01;;;;;;;;;;;;;;;13.18;96.51;99857.25;4981099;28;19976;-50
2023/02/17 04:03:27;;;;;;;;;;;;;;;12.82;100.00;99828.13;4979775;28;19960;-50
2023/02/17 04:05:53;;;;;;;;;;;;;;;12.47;100.00;99835.06;4980341;28;20272;-50
2023/02/17 04:08:18;;;;;;;;;;;;;;;12.75;99.50;99850.69;4980666;28;19984;-52
2023/02/17 04:10:44;;;;;;;;;;;;;;;13.08;99.54;99854.97;4979437;28;19926;-51
2023/02/17 04:13:09;;;;;;;;;;;;;;;12.41;100.00;99806.00;4978019;28;19922;-49
2023/02/17 04:15:34;;;;;;;;;;;;;;;12.67;98.41;99836.28;4977161;28;19921;-49
2023/02/17 04:17:59;;;;;;;;;;;;;;;12.72;100.00;99827.50;4980556;28;20541;-51
2023/02/17 04:20:25;;;;;;;;;;;;;;;12.42;100.00;99829.19;4980417;28;19928;-50
2023/02/17 04:22:50;;;;;;;;;;;;;;;12.86;100.00;99834.88;4981025;28;19926;-49
2023/02/17 04:25:15;;;;;;;;;;;;;;;12.63;100.00;99824.31;4980830;28;19921;-49
2023/02/17 04:27:40;;;;;;;;;;;;;;;12.56;100.00;99819.31;4979782;28;19921;-48
2023/02/17 04:30:06;;;;;;;;;;;;;;;12.10;100.00;99823.09;4979245;28;19929;-52
2023/02/17 04:32:31;;;;;;;;;;;;;;;12.97;100.00;99843.16;4981193;28;19917;-50
2023/02/17 04:34:56;;;;;;;;;;;;;;;12.90;100.00;99810.63;4980375;28;19922;-50
2023/02/17 04:37:21;;;;;;;;;;;;;;;12.97;100.00;99785.44;4979995;28;20028;-48
2023/02/17 04:39:47;;;;;;;;;;;;;;;13.07;100.00;99775.69;4978356;28;19964;-48
2023/02/17 04:42:12;;;;;;;;;;;;;;;12.70;100.00;99730.22;4980470;28;19930;-50
2023/02/17 04:44:37;;;;;;;;;;;;;;;12.74;100.00;99732.69;4980437;28;20361;-49
2023/02/17 04:47:02;;;;;;;;;;;;;;;12.85;100.00;99713.44;4979554;28;19926;-48
2023/02/17 04:49:27;;;;;;;;;;;;;;;12.96;100.00;99732.91;4978984;28;19979;-51
2023/02/17 04:51:53;;;;;;;;;;;;;;;12.12;100.00;99707.72;4980723;28;19926;-48
2023/02/17 04:54:18;;;;;;;;;;;;;;;12.45;100.00;99715.44;4979473;28;19922;-50
2023/02/17 04:56:43;;;;;;;;;;;;;;;12.84;100.00;99727.25;4979310;28;19917;-50
2023/02/17 04:59:08;;;;;;;;;;;;;;;12.44;100.00;99711.16;4979323;28;19922;-49
2023/02/17 05:01:34;;;;;;;;;;;;;;;12.63;100.00;99703.72;4979757;28;20024;-51
2023/02/17 05:03:59;;;;;;;;;;;;;;;12.74;100.00;99685.31;4979696;28;20008;-48
2023/02/17 05:06:24;;;;;;;;;;;;;;;13.19;100.00;99687.38;4979046;28;20013;-52
2023/02/17 05:08:49;;;;;;;;;;;;;;;12.62;100.00;99665.03;4979549;28;20399;-49
2023/02/17 05:11:15;;;;;;;;;;;;;;;12.88;100.00;99695.25;4978355;28;20730;-48
2023/02/17 05:13:40;;;;;;;;;;;;;;;12.48;100.00;99692.09;4979488;28;19921;-48
2023/02/17 05:16:05;;;;;;;;;;;;;;;12.63;100.00;99689.97;4979528;28;19945;-49
2023/02/17 05:18:30;;;;;;;;;;;;;;;13.25;100.00;99710.47;4980324;28;19944;-50
2023/02/17 05:20:56;;;;;;;;;;;;;;;13.32;100.00;99682.69;5001919;28;19922;-51
2023/02/17 05:23:21;;;;;;;;;;;;;;;13.48;100.00;99672.69;4980446;28;19929;-48
2023/02/17 05:25:46;;;;;;;;;;;;;;;13.24;100.00;99648.44;4978174;28;19921;-49
2023/02/17 05:28:11;;;;;;;;;;;;;;;12.91;100.00;99615.03;4981882;28;20276;-49
2023/02/17 05:30:36;;;;;;;;;;;;;;;12.66;100.00;99620.13;4981361;28;20491;-49
2023/02/17 05:33:02;;;;;;;;;;;;;;;13.24;100.00;99618.25;4979662;28;20535;-49
2023/02/17 05:35:27;;;;;;;;;;;;;;;13.28;100.00;99625.03;4979750;28;20279;-48
2023/02/17 05:37:52;;;;;;;;;;;;;;;12.90;100.00;99611.56;4977038;28;20291;-51
2023/02/17 05:40:17;;;;;;;;;;;;;;;12.79;100.00;99630.91;4979347;28;19914;-52
2023/02/17 05:42:43;;;;;;;;;;;;;;;12.30;100.00;99646.13;4979965;28;19928;-50
2023/02/17 05:45:08;;;;;;;;;;;;;;;12.98;100.00;99669.06;4979499;28;19928;-49
2023/02/17 05:47:34;;;;;;;;;;;;;;;13.04;100.00;99654.25;4977509;28;19914;-48
2023/02/17 05:49:59;;;;;;;;;;;;;;;12.81;100.00;99644.63;4982944;28;19964;-50
2023/02/17 05:52:25;;;;;;;;;;;;;;;13.06;100.00;99655.03;4979632;28;19926;-51
2023/02/17 05:54:50;;;;;;;;;;;;;;;12.49;100.00;99644.69;4979180;28;20306;-49
2023/02/17 05:57:15;;;;;;;;;;;;;;;12.91;100.00;99671.91;4979098;28;20000;-48
2023/02/17 05:59:40;;;;;;;;;;;;;;;12.38;100.00;99670.00;4980242;28;19921;-50
2023/02/17 06:02:05;;;;;;;;;;;;;;;12.57;100.00;99688.41;4979613;28;19975;-51
2023/02/17 06:04:31;;;;;;;;;;;;;;;12.88;100.00;99665.06;4979092;28;19921;-51
2023/02/17 06:06:56;;;;;;;;;;;;;;;12.85;100.00;99649.66;4986093;28;19925;-52
2023/02/17 06:09:21;;;;;;;;;;;;;;;12.84;100.00;99640.22;4977750;28;20367;-49
2023/02/17 06:11:46;;;;;;;;;;;;;;;12.86;100.00;99624.66;4982086;28;20669;-50
2023/02/17 06:14:12;;;;;;;;;;;;;;;13.05;100.00;99622.34;4983317;28;19973;-49
2023/02/17 06:16:37;;;;;;;;;;;;;;;13.21;100.00;99633.03;4982514;28;19926;-50
2023/02/17 06:19:03;;;;;;;;;;;;;;;12.98;100.00;99595.84;4983051;28;19921;-49
2023/02/17 06:21:29;;;;;;;;;;;;;;;12.49;100.00;99572.34;4982170;28;19922;-51
2023/02/17 06:23:54;;;;;;;;;;;;;;;13.01;100.00;99592.31;4982771;28;19924;-52
2023/02/17 06:26:19;;;;;;;;;;;;;;;12.94;100.00;99576.97;4982075;28;19921;-50
2023/02/17 06:28:45;;;;;;;;;;;;;;;12.65;100.00;99598.56;4981277;28;20084;-51
2023/02/17 06:31:10;;;;;;;;;;;;;;;12.98;100.00;99595.84;4982990;28;19917;-51
2023/02/17 06:33:35;;;;;;;;;;;;;;;12.59;100.00;99597.91;4982624;28;19920;-50
2023/02/17 06:36:00;;;;;;;;;;;;;;;12.85;100.00;99595.38;4982294;28;19918;-49
2023/02/17 06:38:25;;;;;;;;;;;;;;;12.80;100.00;99591.25;4982628;28;19922;-50
2023/02/17 06:40:51;;;;;;;;;;;;;;;12.87;100.00;99616.00;4982805;28;20021;-50
2023/02/17 06:43:17;;;;;;;;;;;;;;;12.86;100.00;99620.31;4982391;28;19925;-51
2023/02/17 06:45:42;;;;;;;;;;;;;;;13.21;100.00;99625.28;4982200;28;20426;-50
2023/02/17 06:48:07;;;;;;;;;;;;;;;12.63;100.00;99635.69;4982364;28;19917;-51
2023/02/17 06:50:32;;;;;;;;;;;;;;;12.80;100.00;99651.53;4979182;28;20303;-49
2023/02/17 06:52:58;;;;;;;;;;;;;;;12.95;100.00;99658.84;5011912;28;20417;-51
2023/02/17 06:55:23;;;;;;;;;;;;;;;13.03;100.00;99655.16;4983202;28;19953;-49
2023/02/17 06:57:48;;;;;;;;;;;;;;;12.92;100.00;99661.50;5020023;28;19917;-52
2023/02/17 07:00:13;;;;;;;;;;;;;;;12.53;100.00;99661.81;4984948;28;19918;-50
2023/02/17 07:02:39;;;;;;;;;;;;;;;12.89;100.00;99684.03;4980801;28;19968;-51
2023/02/17 07:05:04;;;;;;;;;;;;;;;12.95;100.00;99688.97;4982002;28;20586;-51
2023/02/17 07:07:29;;;;;;;;;;;;;;;13.03;100.00;99687.03;4981717;28;20387;-51
2023/02/17 07:09:55;;;;;;;;;;;;;;;13.12;100.00;99698.81;4981792;28;19921;-50
2023/02/17 07:12:22;;;;;;;;;;;;;;;13.24;100.00;99695.00;4982807;28;21457;-51
2023/02/17 07:14:47;;;;;;;;;;;;;;;13.15;100.00;99684.03;4981470;28;19918;-51
2023/02/17 07:17:12;;;;;;;;;;;;;;;12.72;100.00;99667.25;4981377;28;20317;-50
2023/02/17 07:19:38;;;;;;;;;;;;;;;12.67;100.00;99665.72;4981848;28;19917;-50
2023/02/17 07:22:03;;;;;;;;;;;;;;;12.66;100.00;99666.63;4981658;28;20394;-50
2023/02/17 07:24:28;;;;;;;;;;;;;;;13.00;100.00;99694.00;4981219;28;19917;-49
2023/02/17 07:26:54;;;;;;;;;;;;;;;12.95;100.00;99696.75;4980980;28;19940;-52
2023/02/17 07:29:20;;;;;;;;;;;;;;;12.70;100.00;99688.88;4978448;28;19924;-50
2023/02/17 07:31:45;;;;;;;;;;;;;;;12.98;100.00;99715.59;4981915;28;19918;-49
2023/02/17 07:34:10;;;;;;;;;;;;;;;12.77;100.00;99711.94;4981572;28;19917;-50
2023/02/17 07:36:36;;;;;;;;;;;;;;;12.60;100.00;99726.22;4980813;28;19976;-50
2023/02/17 07:39:01;;;;;;;;;;;;;;;13.17;100.00;99746.91;4982273;28;19944;-51
2023/02/17 07:41:31;;;;;;;;;;;;;;;13.13;100.00;99737.56;4981320;28;19926;-48
2023/02/17 07:43:57;;;;;;;;;;;;;;;12.85;100.00;99719.44;4981859;28;20033;-51
2023/02/17 07:46:22;;;;;;;;;;;;;;;13.55;100.00;99759.59;4980664;28;19938;-50
2023/02/17 07:48:47;;;;;;;;;;;;;;;12.59;100.00;99729.69;4981252;28;20371;-49
2023/02/17 07:51:14;;;;;;;;;;;;;;;13.19;100.00;99739.13;4979329;28;19929;-49
2023/02/17 07:53:40;;;;;;;;;;;;;;;13.14;100.00;99736.69;4981483;28;19914;-49
2023/02/17 07:56:06;;;;;;;;;;;;;;;12.93;100.00;99730.41;4980711;28;20529;-49
2023/02/17 07:58:32;;;;;;;;;;;;;;;13.39;100.00;99762.66;4980976;28;19921;-49
2023/02/17 08:00:57;;;;;;;;;;;;;;;13.09;100.00;99728.22;4981178;28;20294;-50
2023/02/17 08:03:22;;;;;;;;;;;;;;;13.12;100.00;99740.19;4981022;28;20135;-51
2023/02/17 08:05:50;;;;;;;;;;;;;;;12.94;100.00;99737.28;4980126;28;19937;-50
2023/02/17 08:13:43;;;;;;;;;;;;;;;13.53;96.16;99779.50;4984372;28;19956;-51
2023/02/17 08:16:09;;;;;;;;;;;;;;;13.19;99.39;99759.81;4980186;28;20351;-50
2023/02/17 08:18:34;;;;;;;;;;;;;;;13.61;97.27;99761.97;4980955;28;20422;-49
2023/02/17 08:20:59;;;;;;;;;;;;;;;13.25;100.00;99744.09;4980926;28;19976;-52
2023/02/17 08:23:25;;;;;;;;;;;;;;;13.32;100.00;99740.47;4980147;28;19922;-51
2023/02/17 08:25:50;;;;;;;;;;;;;;;13.12;100.00;99732.44;4985826;28;19953;-50
2023/02/17 08:28:16;;;;;;;;;;;;;;;12.95;100.00;99746.75;4977631;28;19960;-49
2023/02/17 08:30:41;;;;;;;;;;;;;;;13.23;100.00;99732.97;4980618;28;19917;-48
2023/02/17 08:33:06;;;;;;;;;;;;;;;13.39;97.87;99741.97;4980977;28;20001;-53
2023/02/17 08:35:32;;;;;;;;;;;;;;;13.18;100.00;99729.66;4978900;28;20016;-50
2023/02/17 08:37:57;;;;;;;;;;;;;;;13.29;98.84;99748.31;4980760;28;20008;-51
2023/02/17 08:40:23;;;;;;;;;;;;;;;12.92;97.20;99743.38;4980306;28;19918;-49
2023/02/17 08:42:48;;;;;;;;;;;;;;;13.09;96.30;99751.50;4980229;28;19928;-49
2023/02/17 08:45:13;;;;;;;;;;;;;;;13.16;91.74;99770.25;4979927;28;20386;-52
2023/02/17 08:47:38;;;;;;;;;;;;;;;13.63;92.81;99785.22;5002662;28;20293;-51
2023/02/17 08:50:05;;;;;;;;;;;;;;;13.50;94.64;99758.88;4981689;28;19977;-49
2023/02/17 08:52:30;;;;;;;;;;;;;;;13.22;95.69;99748.53;4980074;28;19917;-50
2023/02/17 08:54:56;;;;;;;;;;;;;;;13.68;92.54;99753.09;4979241;28;19914;-51
2023/02/17 08:57:21;;;;;;;;;;;;;;;13.52;95.01;99746.72;4979288;28;20303;-50
2023/02/17 08:59:47;;;;;;;;;;;;;;;13.87;96.88;99735.22;4980258;28;21433;-51
2023/02/17 09:02:12;;;;;;;;;;;;;;;13.18;94.72;99709.81;4979846;28;19918;-50
2023/02/17 09:04:37;;;;;;;;;;;;;;;12.83;92.88;99756.56;4979598;28;20468;-52
2023/02/17 09:07:03;;;;;;;;;;;;;;;13.04;85.89;99765.44;4979065;28;20984;-49
2023/02/17 09:09:28;;;;;;;;;;;;;;;13.92;87.06;99797.22;4979452;28;20072;-51
2023/02/17 09:11:54;;;;;;;;;;;;;;;13.67;89.26;99781.63;4980076;28;19929;-52
2023/02/17 09:14:22;;;;;;;;;;;;;;;13.64;89.64;99780.00;4979683;28;19918;-51
2023/02/17 09:16:48;;;;;;;;;;;;;;;13.20;90.18;99782.19;4978707;28;19961;-50
2023/02/17 09:19:13;;;;;;;;;;;;;;;14.03;87.25;99805.47;4980067;28;20624;-52
2023/02/17 09:21:38;;;;;;;;;;;;;;;13.52;89.68;99783.81;4980127;28;19922;-49
2023/02/17 09:24:03;;;;;;;;;;;;;;;13.58;86.87;99806.06;4979771;28;19928;-51
2023/02/17 09:26:29;;;;;;;;;;;;;;;14.11;87.78;99813.00;4978525;28;19967;-50
2023/02/17 09:28:54;;;;;;;;;;;;;;;13.91;94.04;99790.34;4978030;28;19917;-50
2023/02/17 09:31:20;;;;;;;;;;;;;;;14.24;94.95;99788.38;4979997;28;20418;-49
2023/02/17 09:33:46;;;;;;;;;;;;;;;13.62;96.58;99776.63;4979891;28;19933;-50
2023/02/17 09:36:12;;;;;;;;;;;;;;;13.92;95.73;99782.53;4979022;28;20078;-51
2023/02/17 09:38:38;;;;;;;;;;;;;;;13.62;100.00;99768.84;5020410;28;19960;-51
2023/02/17 09:41:22;;;;;;;;;;;;;;;14.30;93.84;99792.47;4982745;28;20652;-50
2023/02/17 09:43:48;;;;;;;;;;;;;;;14.21;96.88;99776.38;4979861;28;19917;-49
2023/02/17 09:46:45;;;;;;;;;;;;;;;14.29;98.71;99759.72;5025178;28;20060;-49
2023/02/17 09:49:18;;;;;;;;;;;;;;;13.55;100.00;99715.59;4997037;28;19914;-52
2023/02/17 09:51:43;;;;;;;;;;;;;;;13.79;98.66;99745.00;4983614;28;19918;-51
2023/02/17 09:54:10;;;;;;;;;;;;;;;14.20;97.34;99748.75;4983443;28;20444;-51
2023/02/17 09:56:37;;;;;;;;;;;;;;;13.83;100.00;99756.09;4982853;28;19971;-52
2023/02/17 09:59:14;;;;;;;;;;;;;;;14.19;100.00;99762.63;5021417;28;19939;-52
2023/02/17 10:01:40;;;;;;;;;;;;;;;14.68;100.00;99762.63;4983485;28;19961;-51
2023/02/17 10:04:05;;;;;;;;;;;;;;;14.42;100.00;99763.56;4983328;28;19957;-51
2023/02/17 10:06:40;;;;;;;;;;;;;;;14.38;100.00;99751.59;4982023;28;19968;-51
2023/02/17 10:09:12;;;;;;;;;;;;;;;13.85;100.00;99721.50;4983248;28;20779;-51
2023/02/17 10:11:58;;;;;;;;;;;;;;;14.58;100.00;99714.63;4983593;28;19914;-50
2023/02/17 10:14:33;;;;;;;;;;;;;;;14.85;100.00;99697.19;5015720;28;19918;-52
2023/02/17 10:17:02;;;;;;;;;;;;;;;14.49;100.00;99676.91;4982443;28;19922;-51
2023/02/17 10:19:35;;;;;;;;;;;;;;;14.75;100.00;99659.56;4983085;28;19924;-52
2023/02/17 10:22:20;;;;;;;;;;;;;;;14.80;100.00;99626.50;5028922;28;19928;-51
2023/02/17 10:24:45;;;;;;;;;;;;;;;14.94;100.00;99611.25;4981981;28;19926;-50
2023/02/17 10:27:21;;;;;;;;;;;;;;;15.04;100.00;99609.13;4984681;28;19967;-51
2023/02/17 10:29:46;;;;;;;;;;;;;;;14.69;100.00;99582.00;4980999;28;20008;-51
2023/02/17 10:32:12;;;;;;;;;;;;;;;14.35;100.00;99588.47;4983103;28;20018;-51
2023/02/17 10:34:57;;;;;;;;;;;;;;;15.01;100.00;99612.69;4981996;28;19924;-50
2023/02/17 10:37:41;;;;;;;;;;;;;;;15.00;100.00;99603.22;4981644;28;19927;-49
2023/02/17 10:40:09;;;;;;;;;;;;;;;15.03;100.00;99576.34;4982550;28;20697;-51
2023/02/17 10:42:35;;;;;;;;;;;;;;;14.85;100.00;99565.78;5017668;28;19972;-50
2023/02/17 10:45:02;;;;;;;;;;;;;;;15.16;100.00;99563.69;5001963;28;19917;-51
2023/02/17 10:47:27;;;;;;;;;;;;;;;15.68;100.00;99572.66;5012226;28;19913;-50
2023/02/17 10:49:54;;;;;;;;;;;;;;;14.73;100.00;99540.34;4978200;28;21104;-52
2023/02/17 10:52:20;;;;;;;;;;;;;;;15.32;100.00;99564.72;5025532;28;19924;-49
2023/02/17 10:54:47;;;;;;;;;;;;;;;15.09;100.00;99523.34;5017846;28;19918;-48
2023/02/17 10:57:12;;;;;;;;;;;;;;;15.15;100.00;99523.94;5026274;28;19943;-50
2023/02/17 10:59:38;;;;;;;;;;;;;;;15.20;100.00;99531.50;4982178;28;20457;-50
2023/02/17 11:02:22;;;;;;;;;;;;;;;15.65;100.00;99533.88;4981467;28;19922;-49
2023/02/17 11:04:48;;;;;;;;;;;;;;;14.42;100.00;99509.59;4982076;28;19917;-49
2023/02/17 11:07:15;;;;;;;;;;;;;;;14.87;100.00;99538.94;4981655;28;19961;-48
2023/02/17 11:09:44;;;;;;;;;;;;;;;14.56;100.00;99519.44;5025121;28;19921;-51
2023/02/17 11:12:11;;;;;;;;;;;;;;;14.80;100.00;99522.78;5013010;28;19913;-50
2023/02/17 11:14:36;;;;;;;;;;;;;;;15.77;100.00;99484.91;4981561;28;19918;-51
2023/02/17 11:17:03;;;;;;;;;;;;;;;15.67;100.00;99485.31;4981337;28;19975;-51
2023/02/17 11:19:33;;;;;;;;;;;;;;;15.73;100.00;99472.97;5014425;28;19953;-49
2023/02/17 11:21:59;;;;;;;;;;;;;;;15.92;100.00;99473.84;4982285;28;19957;-48
2023/02/17 11:24:24;;;;;;;;;;;;;;;14.94;100.00;99442.69;4982017;28;20016;-50
2023/02/17 11:27:03;;;;;;;;;;;;;;;15.58;100.00;99462.34;4986722;28;20366;-49
2023/02/17 11:29:28;;;;;;;;;;;;;;;15.52;100.00;99454.84;5021320;28;19924;-51
2023/02/17 11:31:54;;;;;;;;;;;;;;;15.83;100.00;99462.13;4981846;28;19917;-53
2023/02/17 11:34:20;;;;;;;;;;;;;;;15.41;100.00;99460.50;4981800;28;19988;-51
2023/02/17 11:36:46;;;;;;;;;;;;;;;14.82;100.00;99438.00;4980635;28;20801;-50
2023/02/17 11:39:18;;;;;;;;;;;;;;;15.29;100.00;99471.44;5018395;28;19914;-51
2023/02/17 11:41:43;;;;;;;;;;;;;;;15.24;100.00;99460.41;4981618;28;19931;-49
2023/02/17 11:44:09;;;;;;;;;;;;;;;15.15;100.00;99477.22;4981613;28;20373;-50
2023/02/17 11:46:39;;;;;;;;;;;;;;;15.41;100.00;99483.84;5016683;28;19918;-49
2023/02/17 11:49:08;;;;;;;;;;;;;;;15.11;100.00;99454.06;5017110;28;20031;-49
2023/02/17 11:51:33;;;;;;;;;;;;;;;15.18;100.00;99465.88;4981007;28;19918;-51
2023/02/17 11:54:13;;;;;;;;;;;;;;;15.03;100.00;99447.47;4981610;28;19940;-51
2023/02/17 11:56:43;;;;;;;;;;;;;;;14.97;100.00;99450.31;4980656;28;19913;-52
2023/02/17 11:59:11;;;;;;;;;;;;;;;15.02;100.00;99461.34;5018662;28;20055;-50
2023/02/17 12:01:55;;;;;;;;;;;;;;;15.54;100.00;99444.41;4989068;28;19926;-52
2023/02/17 12:04:23;;;;;;;;;;;;;;;15.62;100.00;99429.28;4981033;28;19968;-52
2023/02/17 12:07:07;;;;;;;;;;;;;;;14.98;100.00;99400.13;4980322;28;20009;-52
2023/02/17 12:10:10;;;;;;;;;;;;;;;14.99;100.00;99419.97;4982997;28;20448;-51
2023/02/17 12:12:44;;;;;;;;;;;;;;;15.48;100.00;99412.59;5002330;28;20038;-52
2023/02/17 12:15:25;;;;;;;;;;;;;;;15.13;100.00;99396.03;4992993;28;19940;-48
2023/02/17 12:18:10;;;;;;;;;;;;;;;15.52;100.00;99383.91;4985991;28;19917;-51
2023/02/17 12:20:54;;;;;;;;;;;;;;;15.45;100.00;99371.22;4991661;28;20016;-51
2023/02/17 12:23:37;;;;;;;;;;;;;;;16.40;100.00;99359.78;4980852;28;19944;-49
2023/02/17 12:26:03;;;;;;;;;;;;;;;16.55;100.00;99337.38;4979944;28;19917;-51
2023/02/17 12:28:34;;;;;;;;;;;;;;;16.48;100.00;99300.47;4978971;28;19995;-52
2023/02/17 12:30:59;;;;;;;;;;;;;;;15.39;100.00;99291.03;4980953;28;20656;-50
2023/02/17 12:33:28;;;;;;;;;;;;;;;15.75;100.00;99289.38;4980466;28;20007;-49
2023/02/17 12:35:54;;;;;;;;;;;;;;;15.71;100.00;99287.84;4980359;28;20424;-51
2023/02/17 12:38:30;;;;;;;;;;;;;;;15.86;100.00;99266.34;4980406;28;19918;-52
2023/02/17 12:41:02;;;;;;;;;;;;;;;16.08;100.00;99285.13;4980519;28;19975;-50
2023/02/17 12:43:33;;;;;;;;;;;;;;;15.87;100.00;99262.81;4980315;28;19971;-51